sensor_id;sensor_type;location;lat;lon;timestamp;P1;durP1;ratioP1;P2;durP2;ratioP2
479;SDS011;226;48.606;9.096;2023-05-21T00:02:19;20.07;;;7.30;;
479;SDS011;226;48.606;9.096;2023-05-21T00:04:48;17.90;;;8.90;;
479;SDS011;226;48.606;9.096;2023-05-21T00:07:16;16.87;;;7.90;;
479;SDS011;226;48.606;9.096;2023-05-21T00:09:45;17.37;;;8.83;;
479;SDS011;226;48.606;9.096;2023-05-21T00:12:13;16.80;;;8.50;;
479;SDS011;226;48.606;9.096;2023-05-21T00:14:43;27.40;;;9.90;;
479;SDS011;226;48.606;9.096;2023-05-21T00:17:11;15.40;;;8.47;;
479;SDS011;226;48.606;9.096;2023-05-21T00:19:39;15.97;;;7.87;;
479;SDS011;226;48.606;9.096;2023-05-21T00:22:07;16.83;;;8.70;;
479;SDS011;226;48.606;9.096;2023-05-21T00:24:35;17.23;;;7.63;;
479;SDS011;226;48.606;9.096;2023-05-21T00:27:04;18.07;;;9.37;;
479;SDS011;226;48.606;9.096;2023-05-21T00:29:32;18.53;;;7.87;;
479;SDS011;226;48.606;9.096;2023-05-21T00:32:02;20.27;;;9.23;;
479;SDS011;226;48.606;9.096;2023-05-21T00:34:31;17.87;;;8.80;;
479;SDS011;226;48.606;9.096;2023-05-21T00:36:59;13.87;;;7.33;;
479;SDS011;226;48.606;9.096;2023-05-21T00:39:28;27.83;;;7.63;;
479;SDS011;226;48.606;9.096;2023-05-21T00:41:56;15.53;;;7.63;;
479;SDS011;226;48.606;9.096;2023-05-21T00:44:25;17.43;;;8.43;;
479;SDS011;226;48.606;9.096;2023-05-21T00:46:59;21.40;;;9.50;;
479;SDS011;226;48.606;9.096;2023-05-21T00:49:29;16.77;;;7.97;;
479;SDS011;226;48.606;9.096;2023-05-21T00:51:57;15.30;;;8.50;;
479;SDS011;226;48.606;9.096;2023-05-21T00:54:27;16.20;;;8.40;;
479;SDS011;226;48.606;9.096;2023-05-21T00:56:55;20.53;;;8.47;;
479;SDS011;226;48.606;9.096;2023-05-21T00:59:23;17.50;;;8.03;;
479;SDS011;226;48.606;9.096;2023-05-21T01:01:52;12.70;;;7.93;;
479;SDS011;226;48.606;9.096;2023-05-21T01:04:23;20.70;;;8.53;;
479;SDS011;226;48.606;9.096;2023-05-21T01:06:51;17.30;;;9.40;;
479;SDS011;226;48.606;9.096;2023-05-21T01:09:21;17.67;;;8.30;;
479;SDS011;226;48.606;9.096;2023-05-21T01:11:49;18.77;;;9.00;;
479;SDS011;226;48.606;9.096;2023-05-21T01:14:18;18.30;;;9.47;;
479;SDS011;226;48.606;9.096;2023-05-21T01:16:49;16.50;;;9.07;;
479;SDS011;226;48.606;9.096;2023-05-21T01:19:19;20.90;;;10.70;;
479;SDS011;226;48.606;9.096;2023-05-21T01:21:50;25.30;;;9.50;;
479;SDS011;226;48.606;9.096;2023-05-21T01:24:20;21.87;;;11.40;;
479;SDS011;226;48.606;9.096;2023-05-21T01:26:49;22.90;;;9.37;;
479;SDS011;226;48.606;9.096;2023-05-21T01:29:17;20.20;;;8.90;;
479;SDS011;226;48.606;9.096;2023-05-21T01:31:50;19.73;;;8.70;;
479;SDS011;226;48.606;9.096;2023-05-21T01:34:24;19.30;;;10.07;;
479;SDS011;226;48.606;9.096;2023-05-21T01:36:54;19.27;;;9.40;;
479;SDS011;226;48.606;9.096;2023-05-21T01:39:26;22.33;;;10.10;;
479;SDS011;226;48.606;9.096;2023-05-21T01:41:57;15.37;;;8.40;;
479;SDS011;226;48.606;9.096;2023-05-21T01:44:26;20.50;;;10.23;;
479;SDS011;226;48.606;9.096;2023-05-21T01:46:55;17.57;;;9.07;;
479;SDS011;226;48.606;9.096;2023-05-21T01:49:24;19.33;;;9.00;;
479;SDS011;226;48.606;9.096;2023-05-21T01:51:53;22.00;;;10.13;;
479;SDS011;226;48.606;9.096;2023-05-21T01:54:21;18.90;;;8.63;;
479;SDS011;226;48.606;9.096;2023-05-21T01:56:51;19.37;;;8.90;;
479;SDS011;226;48.606;9.096;2023-05-21T01:59:21;19.77;;;10.10;;
479;SDS011;226;48.606;9.096;2023-05-21T02:01:49;19.80;;;9.40;;
479;SDS011;226;48.606;9.096;2023-05-21T02:04:17;22.10;;;11.23;;
479;SDS011;226;48.606;9.096;2023-05-21T02:06:45;22.83;;;9.70;;
479;SDS011;226;48.606;9.096;2023-05-21T02:09:13;33.53;;;9.70;;
479;SDS011;226;48.606;9.096;2023-05-21T02:11:41;20.80;;;10.00;;
479;SDS011;226;48.606;9.096;2023-05-21T02:14:11;21.97;;;9.77;;
479;SDS011;226;48.606;9.096;2023-05-21T02:16:39;19.00;;;10.23;;
479;SDS011;226;48.606;9.096;2023-05-21T02:19:07;17.47;;;9.47;;
479;SDS011;226;48.606;9.096;2023-05-21T02:21:36;15.17;;;9.50;;
479;SDS011;226;48.606;9.096;2023-05-21T02:24:05;16.67;;;8.33;;
479;SDS011;226;48.606;9.096;2023-05-21T02:26:33;21.67;;;9.13;;
479;SDS011;226;48.606;9.096;2023-05-21T02:29:02;21.30;;;10.20;;
479;SDS011;226;48.606;9.096;2023-05-21T02:31:32;18.53;;;9.67;;
479;SDS011;226;48.606;9.096;2023-05-21T02:34:00;19.30;;;9.37;;
479;SDS011;226;48.606;9.096;2023-05-21T02:36:28;22.33;;;9.83;;
479;SDS011;226;48.606;9.096;2023-05-21T02:38:58;21.17;;;9.60;;
479;SDS011;226;48.606;9.096;2023-05-21T02:41:26;19.93;;;9.70;;
479;SDS011;226;48.606;9.096;2023-05-21T02:43:55;24.47;;;10.10;;
479;SDS011;226;48.606;9.096;2023-05-21T02:46:23;22.27;;;10.33;;
479;SDS011;226;48.606;9.096;2023-05-21T02:48:52;23.47;;;10.03;;
479;SDS011;226;48.606;9.096;2023-05-21T02:51:20;24.43;;;10.73;;
479;SDS011;226;48.606;9.096;2023-05-21T02:53:48;25.63;;;10.90;;
479;SDS011;226;48.606;9.096;2023-05-21T02:56:17;20.90;;;9.90;;
479;SDS011;226;48.606;9.096;2023-05-21T02:58:45;25.90;;;9.83;;
479;SDS011;226;48.606;9.096;2023-05-21T03:01:13;20.37;;;11.07;;
479;SDS011;226;48.606;9.096;2023-05-21T03:03:42;21.53;;;10.43;;
479;SDS011;226;48.606;9.096;2023-05-21T03:06:11;20.37;;;8.70;;
479;SDS011;226;48.606;9.096;2023-05-21T03:08:39;23.10;;;11.40;;
479;SDS011;226;48.606;9.096;2023-05-21T03:11:07;20.43;;;10.80;;
479;SDS011;226;48.606;9.096;2023-05-21T03:13:36;21.43;;;11.47;;
479;SDS011;226;48.606;9.096;2023-05-21T03:16:04;20.63;;;9.70;;
479;SDS011;226;48.606;9.096;2023-05-21T03:18:32;20.23;;;9.47;;
479;SDS011;226;48.606;9.096;2023-05-21T03:21:00;24.57;;;11.07;;
479;SDS011;226;48.606;9.096;2023-05-21T03:23:31;21.23;;;10.90;;
479;SDS011;226;48.606;9.096;2023-05-21T03:26:00;23.90;;;10.20;;
479;SDS011;226;48.606;9.096;2023-05-21T03:28:28;19.90;;;9.23;;
479;SDS011;226;48.606;9.096;2023-05-21T03:30:56;18.87;;;9.43;;
479;SDS011;226;48.606;9.096;2023-05-21T03:33:24;26.17;;;10.13;;
479;SDS011;226;48.606;9.096;2023-05-21T03:35:52;26.37;;;10.30;;
479;SDS011;226;48.606;9.096;2023-05-21T03:38:21;21.60;;;9.97;;
479;SDS011;226;48.606;9.096;2023-05-21T03:40:50;20.27;;;9.27;;
479;SDS011;226;48.606;9.096;2023-05-21T03:43:18;15.30;;;8.63;;
479;SDS011;226;48.606;9.096;2023-05-21T03:45:46;27.17;;;11.27;;
479;SDS011;226;48.606;9.096;2023-05-21T03:48:14;19.83;;;10.87;;
479;SDS011;226;48.606;9.096;2023-05-21T03:50:43;21.23;;;10.63;;
479;SDS011;226;48.606;9.096;2023-05-21T03:53:11;27.90;;;13.37;;
479;SDS011;226;48.606;9.096;2023-05-21T03:55:40;34.30;;;12.37;;
479;SDS011;226;48.606;9.096;2023-05-21T03:58:09;27.07;;;11.07;;
479;SDS011;226;48.606;9.096;2023-05-21T04:00:37;26.03;;;11.93;;
479;SDS011;226;48.606;9.096;2023-05-21T04:03:05;23.67;;;10.30;;
479;SDS011;226;48.606;9.096;2023-05-21T04:05:34;24.83;;;10.77;;
479;SDS011;226;48.606;9.096;2023-05-21T04:08:03;24.03;;;10.93;;
479;SDS011;226;48.606;9.096;2023-05-21T04:10:32;23.10;;;12.23;;
479;SDS011;226;48.606;9.096;2023-05-21T04:13:00;22.77;;;11.43;;
479;SDS011;226;48.606;9.096;2023-05-21T04:15:30;23.63;;;11.77;;
479;SDS011;226;48.606;9.096;2023-05-21T04:18:00;19.80;;;10.50;;
479;SDS011;226;48.606;9.096;2023-05-21T04:20:28;28.33;;;12.47;;
479;SDS011;226;48.606;9.096;2023-05-21T04:22:56;19.00;;;9.97;;
479;SDS011;226;48.606;9.096;2023-05-21T04:25:24;19.17;;;10.20;;
479;SDS011;226;48.606;9.096;2023-05-21T04:27:52;23.60;;;8.87;;
479;SDS011;226;48.606;9.096;2023-05-21T04:30:20;25.00;;;10.40;;
479;SDS011;226;48.606;9.096;2023-05-21T04:32:50;23.60;;;11.13;;
479;SDS011;226;48.606;9.096;2023-05-21T04:35:20;27.63;;;12.70;;
479;SDS011;226;48.606;9.096;2023-05-21T04:37:48;21.23;;;11.27;;
479;SDS011;226;48.606;9.096;2023-05-21T04:40:17;24.63;;;10.07;;
479;SDS011;226;48.606;9.096;2023-05-21T04:42:49;19.27;;;10.60;;
479;SDS011;226;48.606;9.096;2023-05-21T04:45:18;30.13;;;11.00;;
479;SDS011;226;48.606;9.096;2023-05-21T04:47:46;27.10;;;10.83;;
479;SDS011;226;48.606;9.096;2023-05-21T04:50:16;23.80;;;9.80;;
479;SDS011;226;48.606;9.096;2023-05-21T04:52:45;23.50;;;10.57;;
479;SDS011;226;48.606;9.096;2023-05-21T04:55:13;21.53;;;10.67;;
479;SDS011;226;48.606;9.096;2023-05-21T04:57:44;20.10;;;9.83;;
479;SDS011;226;48.606;9.096;2023-05-21T05:00:12;21.90;;;9.73;;
479;SDS011;226;48.606;9.096;2023-05-21T05:02:41;22.77;;;9.57;;
479;SDS011;226;48.606;9.096;2023-05-21T05:05:09;21.43;;;9.53;;
479;SDS011;226;48.606;9.096;2023-05-21T05:07:39;24.30;;;11.50;;
479;SDS011;226;48.606;9.096;2023-05-21T05:10:07;20.47;;;10.43;;
479;SDS011;226;48.606;9.096;2023-05-21T05:12:35;22.27;;;11.07;;
479;SDS011;226;48.606;9.096;2023-05-21T05:15:04;22.03;;;10.57;;
479;SDS011;226;48.606;9.096;2023-05-21T05:17:33;23.27;;;10.80;;
479;SDS011;226;48.606;9.096;2023-05-21T05:20:01;22.90;;;10.77;;
479;SDS011;226;48.606;9.096;2023-05-21T05:22:30;19.17;;;9.80;;
479;SDS011;226;48.606;9.096;2023-05-21T05:24:59;22.80;;;10.23;;
479;SDS011;226;48.606;9.096;2023-05-21T05:27:27;25.47;;;10.87;;
479;SDS011;226;48.606;9.096;2023-05-21T05:29:56;16.47;;;9.30;;
479;SDS011;226;48.606;9.096;2023-05-21T05:32:24;22.50;;;9.90;;
479;SDS011;226;48.606;9.096;2023-05-21T05:34:52;23.77;;;10.40;;
479;SDS011;226;48.606;9.096;2023-05-21T05:37:20;25.40;;;11.23;;
479;SDS011;226;48.606;9.096;2023-05-21T05:39:48;22.83;;;9.43;;
479;SDS011;226;48.606;9.096;2023-05-21T05:42:22;22.40;;;10.43;;
479;SDS011;226;48.606;9.096;2023-05-21T05:44:50;25.40;;;11.23;;
479;SDS011;226;48.606;9.096;2023-05-21T05:47:18;20.37;;;10.60;;
479;SDS011;226;48.606;9.096;2023-05-21T05:49:47;20.10;;;10.73;;
479;SDS011;226;48.606;9.096;2023-05-21T05:52:15;21.80;;;12.30;;
479;SDS011;226;48.606;9.096;2023-05-21T05:54:43;17.70;;;10.20;;
479;SDS011;226;48.606;9.096;2023-05-21T05:57:11;22.07;;;10.80;;
479;SDS011;226;48.606;9.096;2023-05-21T05:59:40;22.47;;;11.33;;
479;SDS011;226;48.606;9.096;2023-05-21T06:02:09;24.67;;;11.83;;
479;SDS011;226;48.606;9.096;2023-05-21T06:04:37;22.80;;;11.23;;
479;SDS011;226;48.606;9.096;2023-05-21T06:07:05;18.53;;;10.57;;
479;SDS011;226;48.606;9.096;2023-05-21T06:09:33;26.17;;;11.40;;
479;SDS011;226;48.606;9.096;2023-05-21T06:12:02;25.10;;;11.53;;
479;SDS011;226;48.606;9.096;2023-05-21T06:14:30;30.27;;;11.93;;
479;SDS011;226;48.606;9.096;2023-05-21T06:17:00;17.77;;;10.27;;
479;SDS011;226;48.606;9.096;2023-05-21T06:19:28;21.00;;;10.50;;
479;SDS011;226;48.606;9.096;2023-05-21T06:21:56;20.30;;;10.73;;
479;SDS011;226;48.606;9.096;2023-05-21T06:24:24;25.60;;;11.83;;
479;SDS011;226;48.606;9.096;2023-05-21T06:26:52;25.43;;;11.40;;
479;SDS011;226;48.606;9.096;2023-05-21T06:29:20;22.57;;;12.07;;
479;SDS011;226;48.606;9.096;2023-05-21T06:31:48;29.67;;;12.57;;
479;SDS011;226;48.606;9.096;2023-05-21T06:34:18;18.83;;;9.93;;
479;SDS011;226;48.606;9.096;2023-05-21T06:36:46;22.37;;;11.00;;
479;SDS011;226;48.606;9.096;2023-05-21T06:39:15;31.60;;;14.43;;
479;SDS011;226;48.606;9.096;2023-05-21T06:41:43;22.37;;;10.23;;
479;SDS011;226;48.606;9.096;2023-05-21T06:44:11;21.30;;;11.90;;
479;SDS011;226;48.606;9.096;2023-05-21T06:46:41;34.70;;;13.97;;
479;SDS011;226;48.606;9.096;2023-05-21T06:49:09;24.97;;;12.10;;
479;SDS011;226;48.606;9.096;2023-05-21T06:51:41;24.50;;;12.00;;
479;SDS011;226;48.606;9.096;2023-05-21T06:54:09;25.53;;;11.07;;
479;SDS011;226;48.606;9.096;2023-05-21T06:56:37;30.20;;;13.60;;
479;SDS011;226;48.606;9.096;2023-05-21T06:59:05;30.80;;;12.40;;
479;SDS011;226;48.606;9.096;2023-05-21T07:01:33;28.43;;;11.57;;
479;SDS011;226;48.606;9.096;2023-05-21T07:04:01;26.53;;;12.40;;
479;SDS011;226;48.606;9.096;2023-05-21T07:06:30;33.03;;;13.57;;
479;SDS011;226;48.606;9.096;2023-05-21T07:08:59;25.07;;;11.70;;
479;SDS011;226;48.606;9.096;2023-05-21T07:11:28;24.20;;;12.07;;
479;SDS011;226;48.606;9.096;2023-05-21T07:13:56;24.57;;;12.00;;
479;SDS011;226;48.606;9.096;2023-05-21T07:16:25;26.70;;;10.70;;
479;SDS011;226;48.606;9.096;2023-05-21T07:18:54;26.70;;;12.90;;
479;SDS011;226;48.606;9.096;2023-05-21T07:21:22;22.73;;;11.67;;
479;SDS011;226;48.606;9.096;2023-05-21T07:23:50;28.60;;;12.80;;
479;SDS011;226;48.606;9.096;2023-05-21T07:26:20;25.50;;;11.70;;
479;SDS011;226;48.606;9.096;2023-05-21T07:28:48;25.00;;;11.87;;
479;SDS011;226;48.606;9.096;2023-05-21T07:31:16;23.20;;;10.83;;
479;SDS011;226;48.606;9.096;2023-05-21T07:33:44;25.43;;;12.07;;
479;SDS011;226;48.606;9.096;2023-05-21T07:36:12;22.67;;;10.73;;
479;SDS011;226;48.606;9.096;2023-05-21T07:38:41;18.70;;;9.90;;
479;SDS011;226;48.606;9.096;2023-05-21T07:41:10;19.80;;;10.70;;
479;SDS011;226;48.606;9.096;2023-05-21T07:43:39;24.80;;;11.30;;
479;SDS011;226;48.606;9.096;2023-05-21T07:46:07;22.10;;;11.37;;
479;SDS011;226;48.606;9.096;2023-05-21T07:48:35;25.47;;;11.37;;
479;SDS011;226;48.606;9.096;2023-05-21T07:51:04;24.90;;;11.40;;
479;SDS011;226;48.606;9.096;2023-05-21T07:53:32;18.67;;;9.83;;
479;SDS011;226;48.606;9.096;2023-05-21T07:56:00;18.90;;;10.40;;
479;SDS011;226;48.606;9.096;2023-05-21T07:58:28;21.80;;;9.10;;
479;SDS011;226;48.606;9.096;2023-05-21T08:00:59;24.33;;;10.60;;
479;SDS011;226;48.606;9.096;2023-05-21T08:03:27;19.27;;;10.67;;
479;SDS011;226;48.606;9.096;2023-05-21T08:05:56;22.03;;;10.90;;
479;SDS011;226;48.606;9.096;2023-05-21T08:08:24;20.13;;;10.60;;
479;SDS011;226;48.606;9.096;2023-05-21T08:10:52;20.90;;;10.70;;
479;SDS011;226;48.606;9.096;2023-05-21T08:13:21;17.37;;;10.10;;
479;SDS011;226;48.606;9.096;2023-05-21T08:15:49;17.87;;;10.40;;
479;SDS011;226;48.606;9.096;2023-05-21T08:18:20;23.20;;;11.53;;
479;SDS011;226;48.606;9.096;2023-05-21T08:20:49;17.60;;;10.30;;
479;SDS011;226;48.606;9.096;2023-05-21T08:23:17;23.30;;;9.87;;
479;SDS011;226;48.606;9.096;2023-05-21T08:25:45;24.37;;;11.40;;
479;SDS011;226;48.606;9.096;2023-05-21T08:28:13;26.83;;;12.13;;
479;SDS011;226;48.606;9.096;2023-05-21T08:30:41;18.93;;;11.13;;
479;SDS011;226;48.606;9.096;2023-05-21T08:33:09;18.50;;;9.53;;
479;SDS011;226;48.606;9.096;2023-05-21T08:35:39;23.80;;;10.30;;
479;SDS011;226;48.606;9.096;2023-05-21T08:38:07;15.27;;;8.90;;
479;SDS011;226;48.606;9.096;2023-05-21T08:40:35;27.30;;;11.30;;
479;SDS011;226;48.606;9.096;2023-05-21T08:43:03;20.87;;;10.80;;
479;SDS011;226;48.606;9.096;2023-05-21T08:45:32;17.60;;;9.63;;
479;SDS011;226;48.606;9.096;2023-05-21T08:48:04;19.40;;;10.10;;
479;SDS011;226;48.606;9.096;2023-05-21T08:50:33;24.43;;;10.27;;
479;SDS011;226;48.606;9.096;2023-05-21T08:53:02;19.10;;;9.60;;
479;SDS011;226;48.606;9.096;2023-05-21T08:55:49;17.90;;;10.37;;
479;SDS011;226;48.606;9.096;2023-05-21T08:58:19;18.60;;;8.50;;
479;SDS011;226;48.606;9.096;2023-05-21T09:00:48;18.30;;;10.10;;
479;SDS011;226;48.606;9.096;2023-05-21T09:03:16;20.17;;;9.90;;
479;SDS011;226;48.606;9.096;2023-05-21T09:05:47;16.70;;;9.20;;
479;SDS011;226;48.606;9.096;2023-05-21T09:08:18;20.57;;;10.13;;
479;SDS011;226;48.606;9.096;2023-05-21T09:10:53;17.20;;;9.93;;
479;SDS011;226;48.606;9.096;2023-05-21T09:13:21;17.87;;;9.50;;
479;SDS011;226;48.606;9.096;2023-05-21T09:15:51;21.90;;;9.70;;
479;SDS011;226;48.606;9.096;2023-05-21T09:18:19;20.47;;;10.47;;
479;SDS011;226;48.606;9.096;2023-05-21T09:20:47;22.30;;;12.03;;
479;SDS011;226;48.606;9.096;2023-05-21T09:23:16;21.40;;;10.43;;
479;SDS011;226;48.606;9.096;2023-05-21T09:25:46;20.97;;;10.33;;
479;SDS011;226;48.606;9.096;2023-05-21T09:28:17;17.57;;;9.63;;
479;SDS011;226;48.606;9.096;2023-05-21T09:30:46;19.67;;;9.77;;
479;SDS011;226;48.606;9.096;2023-05-21T09:33:22;14.80;;;8.73;;
479;SDS011;226;48.606;9.096;2023-05-21T09:35:52;20.33;;;10.60;;
479;SDS011;226;48.606;9.096;2023-05-21T09:38:22;16.97;;;8.37;;
479;SDS011;226;48.606;9.096;2023-05-21T09:40:52;17.10;;;8.80;;
479;SDS011;226;48.606;9.096;2023-05-21T09:43:21;25.27;;;9.27;;
479;SDS011;226;48.606;9.096;2023-05-21T09:45:50;16.97;;;8.60;;
479;SDS011;226;48.606;9.096;2023-05-21T09:48:31;22.03;;;9.03;;
479;SDS011;226;48.606;9.096;2023-05-21T09:51:07;19.87;;;9.53;;
479;SDS011;226;48.606;9.096;2023-05-21T09:53:42;21.53;;;9.40;;
479;SDS011;226;48.606;9.096;2023-05-21T09:56:11;20.80;;;9.20;;
479;SDS011;226;48.606;9.096;2023-05-21T09:58:39;14.33;;;9.17;;
479;SDS011;226;48.606;9.096;2023-05-21T10:01:09;24.40;;;10.13;;
479;SDS011;226;48.606;9.096;2023-05-21T10:03:38;13.37;;;7.90;;
479;SDS011;226;48.606;9.096;2023-05-21T10:06:07;18.83;;;8.33;;
479;SDS011;226;48.606;9.096;2023-05-21T10:08:35;14.83;;;8.77;;
479;SDS011;226;48.606;9.096;2023-05-21T10:11:10;17.20;;;8.87;;
479;SDS011;226;48.606;9.096;2023-05-21T10:13:42;13.87;;;8.67;;
479;SDS011;226;48.606;9.096;2023-05-21T10:16:14;21.30;;;10.20;;
479;SDS011;226;48.606;9.096;2023-05-21T10:18:42;26.33;;;11.33;;
479;SDS011;226;48.606;9.096;2023-05-21T10:21:12;15.07;;;8.43;;
479;SDS011;226;48.606;9.096;2023-05-21T10:23:40;15.67;;;8.70;;
479;SDS011;226;48.606;9.096;2023-05-21T10:26:12;17.40;;;8.37;;
479;SDS011;226;48.606;9.096;2023-05-21T10:28:41;16.93;;;8.90;;
479;SDS011;226;48.606;9.096;2023-05-21T10:31:10;13.00;;;7.10;;
479;SDS011;226;48.606;9.096;2023-05-21T10:33:39;16.03;;;8.40;;
479;SDS011;226;48.606;9.096;2023-05-21T10:36:08;13.97;;;8.33;;
479;SDS011;226;48.606;9.096;2023-05-21T10:38:37;15.00;;;8.83;;
479;SDS011;226;48.606;9.096;2023-05-21T10:41:06;12.17;;;7.10;;
479;SDS011;226;48.606;9.096;2023-05-21T10:43:46;17.93;;;8.37;;
479;SDS011;226;48.606;9.096;2023-05-21T10:49:37;12.20;;;6.87;;
479;SDS011;226;48.606;9.096;2023-05-21T10:52:08;16.50;;;8.27;;
479;SDS011;226;48.606;9.096;2023-05-21T10:54:46;14.67;;;7.70;;
479;SDS011;226;48.606;9.096;2023-05-21T10:57:24;13.27;;;8.20;;
479;SDS011;226;48.606;9.096;2023-05-21T11:00:11;12.80;;;7.43;;
479;SDS011;226;48.606;9.096;2023-05-21T11:02:42;14.87;;;8.70;;
479;SDS011;226;48.606;9.096;2023-05-21T11:05:11;17.27;;;8.33;;
479;SDS011;226;48.606;9.096;2023-05-21T11:07:51;11.50;;;7.10;;
479;SDS011;226;48.606;9.096;2023-05-21T11:10:29;11.10;;;6.73;;
479;SDS011;226;48.606;9.096;2023-05-21T11:13:04;12.97;;;7.30;;
479;SDS011;226;48.606;9.096;2023-05-21T11:18:58;12.37;;;7.30;;
479;SDS011;226;48.606;9.096;2023-05-21T11:21:28;17.57;;;8.40;;
479;SDS011;226;48.606;9.096;2023-05-21T11:24:06;11.20;;;7.03;;
479;SDS011;226;48.606;9.096;2023-05-21T11:29:30;13.10;;;7.90;;
479;SDS011;226;48.606;9.096;2023-05-21T11:32:07;16.77;;;7.80;;
479;SDS011;226;48.606;9.096;2023-05-21T11:34:38;13.07;;;7.60;;
479;SDS011;226;48.606;9.096;2023-05-21T11:40:16;14.60;;;8.17;;
479;SDS011;226;48.606;9.096;2023-05-21T11:42:49;15.53;;;8.30;;
479;SDS011;226;48.606;9.096;2023-05-21T11:45:19;16.23;;;8.30;;
479;SDS011;226;48.606;9.096;2023-05-21T11:47:49;10.03;;;5.83;;
479;SDS011;226;48.606;9.096;2023-05-21T11:50:19;10.07;;;6.50;;
479;SDS011;226;48.606;9.096;2023-05-21T11:52:47;11.60;;;6.80;;
479;SDS011;226;48.606;9.096;2023-05-21T11:55:20;11.60;;;6.80;;
479;SDS011;226;48.606;9.096;2023-05-21T11:57:51;13.13;;;8.00;;
479;SDS011;226;48.606;9.096;2023-05-21T12:00:20;11.00;;;6.67;;
479;SDS011;226;48.606;9.096;2023-05-21T12:02:50;13.60;;;6.93;;
479;SDS011;226;48.606;9.096;2023-05-21T12:05:22;11.07;;;6.73;;
479;SDS011;226;48.606;9.096;2023-05-21T12:07:51;14.90;;;7.20;;
479;SDS011;226;48.606;9.096;2023-05-21T12:10:20;12.07;;;6.07;;
479;SDS011;226;48.606;9.096;2023-05-21T12:12:49;13.30;;;6.80;;
479;SDS011;226;48.606;9.096;2023-05-21T12:15:22;8.83;;;6.10;;
479;SDS011;226;48.606;9.096;2023-05-21T12:17:54;10.07;;;6.33;;
479;SDS011;226;48.606;9.096;2023-05-21T12:20:24;9.60;;;7.07;;
479;SDS011;226;48.606;9.096;2023-05-21T12:22:55;9.33;;;6.07;;
479;SDS011;226;48.606;9.096;2023-05-21T12:25:24;10.23;;;6.63;;
479;SDS011;226;48.606;9.096;2023-05-21T12:27:55;12.70;;;8.17;;
479;SDS011;226;48.606;9.096;2023-05-21T12:30:24;11.83;;;6.93;;
479;SDS011;226;48.606;9.096;2023-05-21T12:32:56;11.80;;;6.50;;
479;SDS011;226;48.606;9.096;2023-05-21T12:35:24;13.30;;;6.60;;
479;SDS011;226;48.606;9.096;2023-05-21T12:37:55;14.67;;;7.50;;
479;SDS011;226;48.606;9.096;2023-05-21T12:40:33;11.47;;;7.50;;
479;SDS011;226;48.606;9.096;2023-05-21T12:43:03;11.57;;;6.83;;
479;SDS011;226;48.606;9.096;2023-05-21T12:45:33;11.07;;;7.00;;
479;SDS011;226;48.606;9.096;2023-05-21T12:48:06;20.03;;;7.60;;
479;SDS011;226;48.606;9.096;2023-05-21T12:50:38;11.33;;;7.40;;
479;SDS011;226;48.606;9.096;2023-05-21T12:53:09;11.97;;;7.17;;
479;SDS011;226;48.606;9.096;2023-05-21T12:55:41;13.20;;;7.20;;
479;SDS011;226;48.606;9.096;2023-05-21T12:58:12;11.13;;;7.27;;
479;SDS011;226;48.606;9.096;2023-05-21T13:00:44;11.60;;;6.40;;
479;SDS011;226;48.606;9.096;2023-05-21T13:03:15;15.00;;;6.43;;
479;SDS011;226;48.606;9.096;2023-05-21T13:05:46;13.53;;;6.77;;
479;SDS011;226;48.606;9.096;2023-05-21T13:08:17;8.40;;;6.37;;
479;SDS011;226;48.606;9.096;2023-05-21T13:10:49;14.30;;;6.80;;
479;SDS011;226;48.606;9.096;2023-05-21T13:13:18;10.27;;;6.33;;
479;SDS011;226;48.606;9.096;2023-05-21T13:15:48;8.77;;;6.00;;
479;SDS011;226;48.606;9.096;2023-05-21T13:18:21;11.93;;;6.20;;
479;SDS011;226;48.606;9.096;2023-05-21T13:20:52;10.10;;;5.73;;
479;SDS011;226;48.606;9.096;2023-05-21T13:23:22;13.10;;;6.57;;
479;SDS011;226;48.606;9.096;2023-05-21T13:25:51;7.57;;;5.27;;
479;SDS011;226;48.606;9.096;2023-05-21T13:28:21;7.40;;;5.97;;
479;SDS011;226;48.606;9.096;2023-05-21T13:30:52;8.83;;;5.83;;
479;SDS011;226;48.606;9.096;2023-05-21T13:33:23;10.20;;;6.77;;
479;SDS011;226;48.606;9.096;2023-05-21T13:35:54;7.03;;;4.50;;
479;SDS011;226;48.606;9.096;2023-05-21T13:38:24;8.77;;;6.60;;
479;SDS011;226;48.606;9.096;2023-05-21T13:40:55;7.80;;;5.07;;
479;SDS011;226;48.606;9.096;2023-05-21T13:43:25;8.27;;;5.33;;
479;SDS011;226;48.606;9.096;2023-05-21T13:45:54;8.40;;;5.40;;
479;SDS011;226;48.606;9.096;2023-05-21T13:48:25;9.63;;;6.20;;
479;SDS011;226;48.606;9.096;2023-05-21T13:50:55;6.17;;;4.30;;
479;SDS011;226;48.606;9.096;2023-05-21T13:53:24;7.13;;;4.30;;
479;SDS011;226;48.606;9.096;2023-05-21T13:55:54;7.70;;;4.90;;
479;SDS011;226;48.606;9.096;2023-05-21T13:58:23;8.40;;;6.00;;
479;SDS011;226;48.606;9.096;2023-05-21T14:00:53;8.50;;;4.80;;
479;SDS011;226;48.606;9.096;2023-05-21T14:03:22;9.20;;;5.00;;
479;SDS011;226;48.606;9.096;2023-05-21T14:05:54;9.87;;;4.87;;
479;SDS011;226;48.606;9.096;2023-05-21T14:08:24;7.20;;;4.83;;
479;SDS011;226;48.606;9.096;2023-05-21T14:10:55;9.83;;;5.83;;
479;SDS011;226;48.606;9.096;2023-05-21T14:13:24;7.27;;;4.80;;
479;SDS011;226;48.606;9.096;2023-05-21T14:15:54;5.40;;;4.07;;
479;SDS011;226;48.606;9.096;2023-05-21T14:18:23;9.60;;;5.07;;
479;SDS011;226;48.606;9.096;2023-05-21T14:20:54;9.40;;;5.50;;
479;SDS011;226;48.606;9.096;2023-05-21T14:23:24;9.20;;;4.50;;
479;SDS011;226;48.606;9.096;2023-05-21T14:25:53;14.50;;;5.13;;
479;SDS011;226;48.606;9.096;2023-05-21T14:28:23;11.67;;;5.50;;
479;SDS011;226;48.606;9.096;2023-05-21T14:30:53;10.40;;;5.10;;
479;SDS011;226;48.606;9.096;2023-05-21T14:33:22;7.28;;;5.13;;
479;SDS011;226;48.606;9.096;2023-05-21T14:35:50;5.37;;;4.30;;
479;SDS011;226;48.606;9.096;2023-05-21T14:38:20;8.60;;;5.53;;
479;SDS011;226;48.606;9.096;2023-05-21T14:40:48;6.30;;;4.80;;
479;SDS011;226;48.606;9.096;2023-05-21T14:43:16;13.30;;;4.93;;
479;SDS011;226;48.606;9.096;2023-05-21T14:45:45;6.60;;;4.30;;
479;SDS011;226;48.606;9.096;2023-05-21T14:48:14;6.83;;;4.03;;
479;SDS011;226;48.606;9.096;2023-05-21T14:50:43;8.20;;;4.20;;
479;SDS011;226;48.606;9.096;2023-05-21T14:53:12;6.57;;;4.10;;
479;SDS011;226;48.606;9.096;2023-05-21T14:55:42;7.77;;;4.80;;
479;SDS011;226;48.606;9.096;2023-05-21T14:58:10;10.00;;;4.20;;
479;SDS011;226;48.606;9.096;2023-05-21T15:00:39;5.80;;;4.00;;
479;SDS011;226;48.606;9.096;2023-05-21T15:03:07;5.27;;;3.50;;
479;SDS011;226;48.606;9.096;2023-05-21T15:05:36;4.00;;;3.43;;
479;SDS011;226;48.606;9.096;2023-05-21T15:08:04;5.13;;;3.50;;
479;SDS011;226;48.606;9.096;2023-05-21T15:10:34;6.17;;;4.10;;
479;SDS011;226;48.606;9.096;2023-05-21T15:13:04;6.10;;;4.57;;
479;SDS011;226;48.606;9.096;2023-05-21T15:15:33;6.23;;;3.77;;
479;SDS011;226;48.606;9.096;2023-05-21T15:18:02;6.73;;;4.10;;
479;SDS011;226;48.606;9.096;2023-05-21T15:20:30;6.83;;;4.30;;
479;SDS011;226;48.606;9.096;2023-05-21T15:22:59;7.27;;;4.57;;
479;SDS011;226;48.606;9.096;2023-05-21T15:25:30;5.80;;;3.60;;
479;SDS011;226;48.606;9.096;2023-05-21T15:27:58;5.23;;;3.77;;
479;SDS011;226;48.606;9.096;2023-05-21T15:30:28;6.00;;;3.80;;
479;SDS011;226;48.606;9.096;2023-05-21T15:32:56;5.77;;;4.20;;
479;SDS011;226;48.606;9.096;2023-05-21T15:35:24;5.57;;;4.40;;
479;SDS011;226;48.606;9.096;2023-05-21T15:37:52;3.73;;;3.33;;
479;SDS011;226;48.606;9.096;2023-05-21T15:40:20;5.83;;;4.10;;
479;SDS011;226;48.606;9.096;2023-05-21T15:42:52;5.40;;;4.00;;
479;SDS011;226;48.606;9.096;2023-05-21T15:45:20;7.37;;;3.90;;
479;SDS011;226;48.606;9.096;2023-05-21T15:47:50;6.10;;;3.73;;
479;SDS011;226;48.606;9.096;2023-05-21T15:50:18;6.00;;;3.37;;
479;SDS011;226;48.606;9.096;2023-05-21T15:52:46;4.57;;;3.17;;
479;SDS011;226;48.606;9.096;2023-05-21T15:55:18;10.53;;;3.63;;